Mendon, MI (49072)

8:19 AM EST on March 01, 2015 (GMT -0500)
Three Rivers Municipal-Haines | Change Station
CLOSE
Current Station
Airport
Location: Three Rivers,
Elevation: 823 ft
Nearby Weather Stations

Elev 823 ft 41.96 °N, 85.59 °W | Updated 5 minutes ago

Overcast
Overcast
15 °F
Feels Like 15 °F
N
0
Wind Variable Wind from North

Today
High -- | Low -- °F
--% Chance of Precip.
Yesterday
High -- | Low -- °F
Precip. -- in
7:17 AM 6:31 PM
Waxing Gibbous, 85% visible
Pressure 30.39 in
Visibility 5.0 miles
Clouds Overcast 1800 ft
Dew Point 12 °F
Humidity 88%
Rainfall 0.00 in
Snow Depth Not available.
UV 0 out of 12
Pollen .40 out of 12
Air Quality Not available.
Flu Activity Not available.
METAR KHAI 011314Z AUTO 00000KT 5SM -SN OVC018 M10/M11 A3039 RMK AO2 T10961113

More Conditions Fewer Conditions

Pressure 30.39 in
Visibility 5.0 miles
Clouds Overcast 1800 ft
Dew Point 12 °F
Humidity 88%
Rainfall 0.00 in
Snow Depth Not available.
UV 0 out of 12
Pollen .40 out of 12
Air Quality Not available.
Flu Activity Not available.
METAR KHAI 011314Z AUTO 00000KT 5SM -SN OVC018 M10/M11 A3039 RMK AO2 T10961113

More Conditions Fewer Conditions

10-Day Weather Forecast

Almanac

Astronomy

Mar. 01, 2015 Rise Set
Actual Time
Civil Twilight
Nautical Twilight
Astronomical Twilight
Moon
Length of Visible Light
Length of Day
Tomorrow will be .
, % of the Moon is Illuminated

Today's Extremes

State Highs State Lows

Community

WunderPhotos

Upload Photos

1,801,374 photos uploaded!

WunderBlogs® & News

Nearby

Air Quality

  Air Quality AQ Index Pollutant
Not available.

Snow Depth

Station Depth Elevation

Earthquake Activity

City Distance Mag. Time & Date
Minimum magnitude displayed is 2.5.

Coastal Water Temperatures

Place Temperature

Nearby Weather Stations